sensor_id;sensor_type;location;lat;lon;timestamp;P1;durP1;ratioP1;P2;durP2;ratioP2
54745;SDS011;40640;48.130;11.356;2023-05-23T00:00:12;14.00;;;9.25;;
54745;SDS011;40640;48.130;11.356;2023-05-23T00:04:17;13.48;;;9.43;;
54745;SDS011;40640;48.130;11.356;2023-05-23T00:08:20;14.73;;;9.98;;
54745;SDS011;40640;48.130;11.356;2023-05-23T00:12:25;12.48;;;9.57;;
54745;SDS011;40640;48.130;11.356;2023-05-23T00:16:28;14.52;;;9.70;;
54745;SDS011;40640;48.130;11.356;2023-05-23T00:20:31;12.20;;;8.75;;
54745;SDS011;40640;48.130;11.356;2023-05-23T00:24:35;11.15;;;9.18;;
54745;SDS011;40640;48.130;11.356;2023-05-23T00:28:40;11.70;;;8.75;;
54745;SDS011;40640;48.130;11.356;2023-05-23T00:32:42;12.70;;;8.70;;
54745;SDS011;40640;48.130;11.356;2023-05-23T00:36:45;13.88;;;9.70;;
54745;SDS011;40640;48.130;11.356;2023-05-23T00:40:51;12.73;;;9.40;;
54745;SDS011;40640;48.130;11.356;2023-05-23T00:44:55;14.70;;;9.98;;
54745;SDS011;40640;48.130;11.356;2023-05-23T00:48:58;16.40;;;10.05;;
54745;SDS011;40640;48.130;11.356;2023-05-23T00:53:01;16.83;;;9.98;;
54745;SDS011;40640;48.130;11.356;2023-05-23T00:57:04;14.50;;;10.02;;
54745;SDS011;40640;48.130;11.356;2023-05-23T01:01:09;14.85;;;9.90;;
54745;SDS011;40640;48.130;11.356;2023-05-23T01:05:13;15.55;;;10.18;;
54745;SDS011;40640;48.130;11.356;2023-05-23T01:09:18;12.80;;;9.80;;
54745;SDS011;40640;48.130;11.356;2023-05-23T01:13:23;13.73;;;10.38;;
54745;SDS011;40640;48.130;11.356;2023-05-23T01:17:37;14.50;;;10.25;;
54745;SDS011;40640;48.130;11.356;2023-05-23T01:21:45;14.00;;;9.48;;
54745;SDS011;40640;48.130;11.356;2023-05-23T01:25:58;15.27;;;11.02;;
54745;SDS011;40640;48.130;11.356;2023-05-23T01:30:10;16.67;;;10.97;;
54745;SDS011;40640;48.130;11.356;2023-05-23T01:34:15;15.73;;;11.27;;
54745;SDS011;40640;48.130;11.356;2023-05-23T01:38:20;15.75;;;10.77;;
54745;SDS011;40640;48.130;11.356;2023-05-23T01:42:23;19.35;;;11.65;;
54745;SDS011;40640;48.130;11.356;2023-05-23T01:46:29;18.92;;;11.98;;
54745;SDS011;40640;48.130;11.356;2023-05-23T01:50:34;17.48;;;11.40;;
54745;SDS011;40640;48.130;11.356;2023-05-23T01:54:37;17.00;;;11.45;;
54745;SDS011;40640;48.130;11.356;2023-05-23T01:58:43;16.27;;;11.50;;
54745;SDS011;40640;48.130;11.356;2023-05-23T02:02:48;16.35;;;12.10;;
54745;SDS011;40640;48.130;11.356;2023-05-23T02:06:51;16.33;;;11.68;;
54745;SDS011;40640;48.130;11.356;2023-05-23T02:10:55;16.35;;;11.77;;
54745;SDS011;40640;48.130;11.356;2023-05-23T02:14:58;18.55;;;12.05;;
54745;SDS011;40640;48.130;11.356;2023-05-23T02:19:02;20.17;;;12.77;;
54745;SDS011;40640;48.130;11.356;2023-05-23T02:23:05;19.77;;;12.35;;
54745;SDS011;40640;48.130;11.356;2023-05-23T02:27:10;18.10;;;12.88;;
54745;SDS011;40640;48.130;11.356;2023-05-23T02:31:13;18.70;;;13.15;;
54745;SDS011;40640;48.130;11.356;2023-05-23T02:35:19;22.80;;;13.57;;
54745;SDS011;40640;48.130;11.356;2023-05-23T02:39:23;26.27;;;13.25;;
54745;SDS011;40640;48.130;11.356;2023-05-23T02:43:26;21.15;;;13.15;;
54745;SDS011;40640;48.130;11.356;2023-05-23T02:47:29;17.48;;;12.75;;
54745;SDS011;40640;48.130;11.356;2023-05-23T02:51:33;20.83;;;13.13;;
54745;SDS011;40640;48.130;11.356;2023-05-23T02:55:36;19.00;;;13.40;;
54745;SDS011;40640;48.130;11.356;2023-05-23T02:59:40;23.83;;;13.95;;
54745;SDS011;40640;48.130;11.356;2023-05-23T03:03:43;24.75;;;13.43;;
54745;SDS011;40640;48.130;11.356;2023-05-23T03:07:47;18.55;;;13.55;;
54745;SDS011;40640;48.130;11.356;2023-05-23T03:11:52;22.05;;;13.95;;
54745;SDS011;40640;48.130;11.356;2023-05-23T03:15:55;25.88;;;15.20;;
54745;SDS011;40640;48.130;11.356;2023-05-23T03:19:58;24.40;;;16.50;;
54745;SDS011;40640;48.130;11.356;2023-05-23T03:24:02;22.77;;;15.68;;
54745;SDS011;40640;48.130;11.356;2023-05-23T03:28:05;24.98;;;17.58;;
54745;SDS011;40640;48.130;11.356;2023-05-23T03:32:08;26.88;;;16.83;;
54745;SDS011;40640;48.130;11.356;2023-05-23T03:36:11;28.08;;;15.98;;
54745;SDS011;40640;48.130;11.356;2023-05-23T03:40:16;27.05;;;16.38;;
54745;SDS011;40640;48.130;11.356;2023-05-23T03:44:19;26.98;;;17.63;;
54745;SDS011;40640;48.130;11.356;2023-05-23T03:48:22;26.08;;;16.98;;
54745;SDS011;40640;48.130;11.356;2023-05-23T03:52:25;30.42;;;17.38;;
54745;SDS011;40640;48.130;11.356;2023-05-23T03:56:29;39.33;;;19.65;;
54745;SDS011;40640;48.130;11.356;2023-05-23T04:00:32;26.92;;;16.90;;
54745;SDS011;40640;48.130;11.356;2023-05-23T04:04:38;24.37;;;17.37;;
54745;SDS011;40640;48.130;11.356;2023-05-23T04:08:41;25.33;;;17.10;;
54745;SDS011;40640;48.130;11.356;2023-05-23T04:12:47;25.08;;;17.15;;
54745;SDS011;40640;48.130;11.356;2023-05-23T04:16:51;27.85;;;16.55;;
54745;SDS011;40640;48.130;11.356;2023-05-23T04:20:54;29.30;;;17.48;;
54745;SDS011;40640;48.130;11.356;2023-05-23T04:24:58;24.15;;;17.13;;
54745;SDS011;40640;48.130;11.356;2023-05-23T04:29:06;27.30;;;18.70;;
54745;SDS011;40640;48.130;11.356;2023-05-23T04:33:09;26.40;;;17.67;;
54745;SDS011;40640;48.130;11.356;2023-05-23T04:37:14;31.02;;;18.85;;
54745;SDS011;40640;48.130;11.356;2023-05-23T04:41:17;28.35;;;18.77;;
54745;SDS011;40640;48.130;11.356;2023-05-23T04:45:39;29.27;;;17.83;;
54745;SDS011;40640;48.130;11.356;2023-05-23T04:50:05;30.10;;;17.40;;
54745;SDS011;40640;48.130;11.356;2023-05-23T04:54:09;24.85;;;17.33;;
54745;SDS011;40640;48.130;11.356;2023-05-23T04:58:13;25.00;;;17.45;;
54745;SDS011;40640;48.130;11.356;2023-05-23T05:02:18;24.63;;;17.60;;
54745;SDS011;40640;48.130;11.356;2023-05-23T05:06:21;24.67;;;18.23;;
54745;SDS011;40640;48.130;11.356;2023-05-23T05:10:25;25.90;;;17.92;;
54745;SDS011;40640;48.130;11.356;2023-05-23T05:14:29;29.23;;;18.20;;
54745;SDS011;40640;48.130;11.356;2023-05-23T05:18:34;29.25;;;17.73;;
54745;SDS011;40640;48.130;11.356;2023-05-23T05:27:40;27.83;;;17.25;;
54745;SDS011;40640;48.130;11.356;2023-05-23T05:31:46;28.48;;;17.50;;
54745;SDS011;40640;48.130;11.356;2023-05-23T05:35:51;26.50;;;17.50;;
54745;SDS011;40640;48.130;11.356;2023-05-23T05:39:54;30.73;;;17.98;;
54745;SDS011;40640;48.130;11.356;2023-05-23T05:43:58;25.33;;;16.30;;
54745;SDS011;40640;48.130;11.356;2023-05-23T05:48:01;22.90;;;15.57;;
54745;SDS011;40640;48.130;11.356;2023-05-23T05:52:06;25.88;;;16.20;;
54745;SDS011;40640;48.130;11.356;2023-05-23T05:56:10;23.02;;;15.50;;
54745;SDS011;40640;48.130;11.356;2023-05-23T06:00:14;23.10;;;16.50;;
54745;SDS011;40640;48.130;11.356;2023-05-23T06:04:19;22.70;;;15.20;;
54745;SDS011;40640;48.130;11.356;2023-05-23T06:08:24;27.15;;;16.15;;
54745;SDS011;40640;48.130;11.356;2023-05-23T06:12:27;19.30;;;15.07;;
54745;SDS011;40640;48.130;11.356;2023-05-23T06:16:30;22.65;;;13.63;;
54745;SDS011;40640;48.130;11.356;2023-05-23T06:20:33;19.77;;;13.48;;
54745;SDS011;40640;48.130;11.356;2023-05-23T06:24:41;24.48;;;15.27;;
54745;SDS011;40640;48.130;11.356;2023-05-23T06:28:44;19.40;;;14.93;;
54745;SDS011;40640;48.130;11.356;2023-05-23T06:32:47;19.65;;;14.65;;
54745;SDS011;40640;48.130;11.356;2023-05-23T06:36:52;22.23;;;14.85;;
54745;SDS011;40640;48.130;11.356;2023-05-23T06:40:56;20.38;;;16.40;;
54745;SDS011;40640;48.130;11.356;2023-05-23T06:44:59;23.80;;;15.18;;
54745;SDS011;40640;48.130;11.356;2023-05-23T06:49:02;27.95;;;15.50;;
54745;SDS011;40640;48.130;11.356;2023-05-23T06:53:17;21.20;;;15.48;;
54745;SDS011;40640;48.130;11.356;2023-05-23T06:57:23;25.10;;;16.83;;
54745;SDS011;40640;48.130;11.356;2023-05-23T07:01:26;26.25;;;16.45;;
54745;SDS011;40640;48.130;11.356;2023-05-23T07:05:29;27.48;;;17.20;;
54745;SDS011;40640;48.130;11.356;2023-05-23T07:09:34;28.52;;;17.30;;
54745;SDS011;40640;48.130;11.356;2023-05-23T07:13:44;25.70;;;16.75;;
54745;SDS011;40640;48.130;11.356;2023-05-23T07:17:55;22.55;;;17.50;;
54745;SDS011;40640;48.130;11.356;2023-05-23T07:21:59;26.45;;;17.30;;
54745;SDS011;40640;48.130;11.356;2023-05-23T07:26:03;26.63;;;17.70;;
54745;SDS011;40640;48.130;11.356;2023-05-23T07:30:30;25.67;;;19.25;;
54745;SDS011;40640;48.130;11.356;2023-05-23T07:34:34;26.73;;;18.17;;
54745;SDS011;40640;48.130;11.356;2023-05-23T07:38:37;29.40;;;18.58;;
54745;SDS011;40640;48.130;11.356;2023-05-23T07:42:40;30.25;;;20.65;;
54745;SDS011;40640;48.130;11.356;2023-05-23T07:46:44;31.23;;;19.73;;
54745;SDS011;40640;48.130;11.356;2023-05-23T07:50:47;29.63;;;19.25;;
54745;SDS011;40640;48.130;11.356;2023-05-23T07:54:56;28.55;;;19.13;;
54745;SDS011;40640;48.130;11.356;2023-05-23T07:59:01;29.60;;;18.63;;
54745;SDS011;40640;48.130;11.356;2023-05-23T08:03:05;27.65;;;18.33;;
54745;SDS011;40640;48.130;11.356;2023-05-23T08:07:15;26.90;;;18.80;;
54745;SDS011;40640;48.130;11.356;2023-05-23T08:11:24;26.33;;;19.25;;
54745;SDS011;40640;48.130;11.356;2023-05-23T08:15:29;32.90;;;19.50;;
54745;SDS011;40640;48.130;11.356;2023-05-23T08:19:42;30.13;;;19.13;;
54745;SDS011;40640;48.130;11.356;2023-05-23T08:23:45;25.00;;;18.35;;
54745;SDS011;40640;48.130;11.356;2023-05-23T08:27:48;25.33;;;18.15;;
54745;SDS011;40640;48.130;11.356;2023-05-23T08:32:09;26.92;;;18.40;;
54745;SDS011;40640;48.130;11.356;2023-05-23T08:36:14;28.52;;;17.80;;
54745;SDS011;40640;48.130;11.356;2023-05-23T08:40:21;28.50;;;18.70;;
54745;SDS011;40640;48.130;11.356;2023-05-23T08:44:32;28.17;;;18.67;;
54745;SDS011;40640;48.130;11.356;2023-05-23T08:48:36;26.27;;;18.08;;
54745;SDS011;40640;48.130;11.356;2023-05-23T08:52:43;29.25;;;19.25;;
54745;SDS011;40640;48.130;11.356;2023-05-23T08:56:52;30.95;;;19.80;;
54745;SDS011;40640;48.130;11.356;2023-05-23T09:00:55;28.95;;;18.90;;
54745;SDS011;40640;48.130;11.356;2023-05-23T09:04:59;24.42;;;17.83;;
54745;SDS011;40640;48.130;11.356;2023-05-23T09:09:04;28.13;;;18.75;;
54745;SDS011;40640;48.130;11.356;2023-05-23T09:13:08;31.23;;;19.55;;
54745;SDS011;40640;48.130;11.356;2023-05-23T09:17:25;25.60;;;18.15;;
54745;SDS011;40640;48.130;11.356;2023-05-23T09:25:54;31.67;;;21.08;;
54745;SDS011;40640;48.130;11.356;2023-05-23T09:29:58;36.17;;;20.77;;
54745;SDS011;40640;48.130;11.356;2023-05-23T09:34:07;29.58;;;19.95;;
54745;SDS011;40640;48.130;11.356;2023-05-23T09:38:12;34.20;;;21.05;;
54745;SDS011;40640;48.130;11.356;2023-05-23T09:42:19;33.90;;;21.25;;
54745;SDS011;40640;48.130;11.356;2023-05-23T09:46:26;32.55;;;21.65;;
54745;SDS011;40640;48.130;11.356;2023-05-23T09:50:30;31.67;;;20.63;;
54745;SDS011;40640;48.130;11.356;2023-05-23T09:54:36;29.80;;;20.55;;
54745;SDS011;40640;48.130;11.356;2023-05-23T09:58:40;30.48;;;21.23;;
54745;SDS011;40640;48.130;11.356;2023-05-23T10:02:53;27.77;;;20.63;;
54745;SDS011;40640;48.130;11.356;2023-05-23T10:06:58;27.88;;;19.45;;
54745;SDS011;40640;48.130;11.356;2023-05-23T10:15:54;34.45;;;21.95;;
54745;SDS011;40640;48.130;11.356;2023-05-23T10:20:02;39.28;;;22.30;;
54745;SDS011;40640;48.130;11.356;2023-05-23T10:24:08;41.85;;;22.65;;
54745;SDS011;40640;48.130;11.356;2023-05-23T10:28:12;31.20;;;21.95;;
54745;SDS011;40640;48.130;11.356;2023-05-23T10:32:18;38.03;;;22.33;;
54745;SDS011;40640;48.130;11.356;2023-05-23T10:36:23;29.13;;;21.30;;
54745;SDS011;40640;48.130;11.356;2023-05-23T10:40:33;29.10;;;19.30;;
54745;SDS011;40640;48.130;11.356;2023-05-23T10:44:44;26.42;;;18.58;;
54745;SDS011;40640;48.130;11.356;2023-05-23T10:48:52;31.08;;;20.35;;
54745;SDS011;40640;48.130;11.356;2023-05-23T10:52:58;30.38;;;19.65;;
54745;SDS011;40640;48.130;11.356;2023-05-23T10:57:01;24.98;;;18.50;;
54745;SDS011;40640;48.130;11.356;2023-05-23T11:01:05;24.88;;;17.67;;
54745;SDS011;40640;48.130;11.356;2023-05-23T11:05:21;25.40;;;16.58;;
54745;SDS011;40640;48.130;11.356;2023-05-23T11:09:25;20.08;;;14.75;;
54745;SDS011;40640;48.130;11.356;2023-05-23T11:17:56;15.57;;;12.30;;
54745;SDS011;40640;48.130;11.356;2023-05-23T11:22:01;17.55;;;12.20;;
54745;SDS011;40640;48.130;11.356;2023-05-23T11:26:12;18.70;;;12.57;;
54745;SDS011;40640;48.130;11.356;2023-05-23T11:30:30;14.95;;;11.75;;
54745;SDS011;40640;48.130;11.356;2023-05-23T11:34:34;16.27;;;11.02;;
54745;SDS011;40640;48.130;11.356;2023-05-23T11:38:38;16.08;;;12.90;;
54745;SDS011;40640;48.130;11.356;2023-05-23T11:42:41;13.80;;;12.23;;
54745;SDS011;40640;48.130;11.356;2023-05-23T11:46:57;16.10;;;12.52;;
54745;SDS011;40640;48.130;11.356;2023-05-23T11:51:00;16.08;;;11.40;;
54745;SDS011;40640;48.130;11.356;2023-05-23T11:55:07;11.63;;;9.88;;
54745;SDS011;40640;48.130;11.356;2023-05-23T11:59:11;10.73;;;9.63;;
54745;SDS011;40640;48.130;11.356;2023-05-23T12:03:14;11.60;;;10.18;;
54745;SDS011;40640;48.130;11.356;2023-05-23T12:07:18;11.70;;;9.68;;
54745;SDS011;40640;48.130;11.356;2023-05-23T12:11:22;10.82;;;9.00;;
54745;SDS011;40640;48.130;11.356;2023-05-23T12:15:26;15.85;;;10.00;;
54745;SDS011;40640;48.130;11.356;2023-05-23T12:19:32;13.10;;;9.73;;
54745;SDS011;40640;48.130;11.356;2023-05-23T12:23:35;11.57;;;10.30;;
54745;SDS011;40640;48.130;11.356;2023-05-23T12:27:39;11.27;;;9.43;;
54745;SDS011;40640;48.130;11.356;2023-05-23T12:31:46;14.75;;;10.10;;
54745;SDS011;40640;48.130;11.356;2023-05-23T12:35:50;18.00;;;10.50;;
54745;SDS011;40640;48.130;11.356;2023-05-23T12:39:54;15.75;;;9.73;;
54745;SDS011;40640;48.130;11.356;2023-05-23T12:43:59;12.02;;;9.48;;
54745;SDS011;40640;48.130;11.356;2023-05-23T12:48:03;12.77;;;8.73;;
54745;SDS011;40640;48.130;11.356;2023-05-23T12:52:07;12.35;;;8.10;;
54745;SDS011;40640;48.130;11.356;2023-05-23T12:56:10;11.38;;;8.48;;
54745;SDS011;40640;48.130;11.356;2023-05-23T13:00:15;11.75;;;7.82;;
54745;SDS011;40640;48.130;11.356;2023-05-23T13:04:18;10.40;;;8.40;;
54745;SDS011;40640;48.130;11.356;2023-05-23T13:08:21;12.23;;;9.30;;
54745;SDS011;40640;48.130;11.356;2023-05-23T13:12:24;14.05;;;8.93;;
54745;SDS011;40640;48.130;11.356;2023-05-23T13:16:28;18.05;;;9.73;;
54745;SDS011;40640;48.130;11.356;2023-05-23T13:20:31;11.98;;;10.30;;
54745;SDS011;40640;48.130;11.356;2023-05-23T13:24:35;12.80;;;9.10;;
54745;SDS011;40640;48.130;11.356;2023-05-23T13:28:38;11.20;;;8.40;;
54745;SDS011;40640;48.130;11.356;2023-05-23T13:32:42;12.30;;;9.15;;
54745;SDS011;40640;48.130;11.356;2023-05-23T13:36:45;12.60;;;9.53;;
54745;SDS011;40640;48.130;11.356;2023-05-23T13:40:48;16.33;;;9.63;;
54745;SDS011;40640;48.130;11.356;2023-05-23T13:44:52;13.07;;;9.13;;
54745;SDS011;40640;48.130;11.356;2023-05-23T13:48:56;14.55;;;8.48;;
54745;SDS011;40640;48.130;11.356;2023-05-23T13:52:59;15.32;;;8.48;;
54745;SDS011;40640;48.130;11.356;2023-05-23T13:57:02;12.10;;;9.32;;
54745;SDS011;40640;48.130;11.356;2023-05-23T14:01:05;12.73;;;9.07;;
54745;SDS011;40640;48.130;11.356;2023-05-23T14:05:15;17.38;;;9.65;;
54745;SDS011;40640;48.130;11.356;2023-05-23T14:13:44;15.35;;;10.63;;
54745;SDS011;40640;48.130;11.356;2023-05-23T14:17:47;11.07;;;9.18;;
54745;SDS011;40640;48.130;11.356;2023-05-23T14:21:56;14.80;;;9.30;;
54745;SDS011;40640;48.130;11.356;2023-05-23T14:25:59;13.55;;;9.60;;
54745;SDS011;40640;48.130;11.356;2023-05-23T14:30:02;11.10;;;8.60;;
54745;SDS011;40640;48.130;11.356;2023-05-23T14:34:06;15.88;;;9.15;;
54745;SDS011;40640;48.130;11.356;2023-05-23T14:38:10;19.23;;;9.98;;
54745;SDS011;40640;48.130;11.356;2023-05-23T14:42:13;10.82;;;9.02;;
54745;SDS011;40640;48.130;11.356;2023-05-23T14:46:16;13.32;;;8.85;;
54745;SDS011;40640;48.130;11.356;2023-05-23T14:50:19;11.00;;;8.95;;
54745;SDS011;40640;48.130;11.356;2023-05-23T14:54:23;11.13;;;9.30;;
54745;SDS011;40640;48.130;11.356;2023-05-23T14:58:26;19.05;;;9.50;;
54745;SDS011;40640;48.130;11.356;2023-05-23T15:02:29;21.23;;;10.48;;
54745;SDS011;40640;48.130;11.356;2023-05-23T15:06:32;12.13;;;9.55;;
54745;SDS011;40640;48.130;11.356;2023-05-23T15:10:37;18.05;;;10.25;;
54745;SDS011;40640;48.130;11.356;2023-05-23T15:14:40;15.18;;;9.85;;
54745;SDS011;40640;48.130;11.356;2023-05-23T15:18:44;19.08;;;9.57;;
54745;SDS011;40640;48.130;11.356;2023-05-23T15:22:46;14.27;;;8.98;;
54745;SDS011;40640;48.130;11.356;2023-05-23T15:26:51;20.52;;;9.65;;
54745;SDS011;40640;48.130;11.356;2023-05-23T15:34:59;13.20;;;9.20;;
54745;SDS011;40640;48.130;11.356;2023-05-23T15:39:02;14.30;;;9.40;;
54745;SDS011;40640;48.130;11.356;2023-05-23T15:43:07;9.40;;;8.38;;
54745;SDS011;40640;48.130;11.356;2023-05-23T15:47:10;21.02;;;9.07;;
54745;SDS011;40640;48.130;11.356;2023-05-23T15:51:13;16.73;;;9.02;;
54745;SDS011;40640;48.130;11.356;2023-05-23T15:55:16;10.50;;;8.45;;
54745;SDS011;40640;48.130;11.356;2023-05-23T15:59:21;11.63;;;8.82;;
54745;SDS011;40640;48.130;11.356;2023-05-23T16:03:23;12.30;;;8.10;;
54745;SDS011;40640;48.130;11.356;2023-05-23T16:07:27;8.50;;;7.30;;
54745;SDS011;40640;48.130;11.356;2023-05-23T16:11:30;11.25;;;7.85;;
54745;SDS011;40640;48.130;11.356;2023-05-23T16:15:34;11.23;;;7.50;;
54745;SDS011;40640;48.130;11.356;2023-05-23T16:19:37;12.20;;;7.38;;
54745;SDS011;40640;48.130;11.356;2023-05-23T16:23:40;11.55;;;7.32;;
54745;SDS011;40640;48.130;11.356;2023-05-23T16:27:43;9.93;;;7.15;;
54745;SDS011;40640;48.130;11.356;2023-05-23T16:31:47;9.77;;;6.85;;
54745;SDS011;40640;48.130;11.356;2023-05-23T16:35:50;8.82;;;6.53;;
54745;SDS011;40640;48.130;11.356;2023-05-23T16:39:53;7.88;;;6.32;;
54745;SDS011;40640;48.130;11.356;2023-05-23T16:43:56;10.65;;;6.15;;
54745;SDS011;40640;48.130;11.356;2023-05-23T16:48:00;7.40;;;5.80;;
54745;SDS011;40640;48.130;11.356;2023-05-23T16:52:03;8.45;;;5.20;;
54745;SDS011;40640;48.130;11.356;2023-05-23T16:56:06;6.40;;;4.93;;
54745;SDS011;40640;48.130;11.356;2023-05-23T17:00:09;6.30;;;4.82;;
54745;SDS011;40640;48.130;11.356;2023-05-23T17:04:14;10.65;;;5.32;;
54745;SDS011;40640;48.130;11.356;2023-05-23T17:08:20;5.82;;;4.78;;
54745;SDS011;40640;48.130;11.356;2023-05-23T17:12:24;6.40;;;4.57;;
54745;SDS011;40640;48.130;11.356;2023-05-23T17:16:27;7.20;;;4.30;;
54745;SDS011;40640;48.130;11.356;2023-05-23T17:20:35;6.38;;;4.32;;
54745;SDS011;40640;48.130;11.356;2023-05-23T17:24:38;8.80;;;3.90;;
54745;SDS011;40640;48.130;11.356;2023-05-23T17:28:41;8.27;;;4.20;;
54745;SDS011;40640;48.130;11.356;2023-05-23T17:32:44;4.32;;;3.65;;
54745;SDS011;40640;48.130;11.356;2023-05-23T17:36:49;5.70;;;3.97;;
54745;SDS011;40640;48.130;11.356;2023-05-23T17:40:53;6.07;;;3.63;;
54745;SDS011;40640;48.130;11.356;2023-05-23T17:44:56;5.28;;;3.40;;
54745;SDS011;40640;48.130;11.356;2023-05-23T17:48:59;4.53;;;3.20;;
54745;SDS011;40640;48.130;11.356;2023-05-23T17:53:03;8.13;;;3.60;;
54745;SDS011;40640;48.130;11.356;2023-05-23T17:57:06;6.93;;;3.60;;
54745;SDS011;40640;48.130;11.356;2023-05-23T18:01:09;4.55;;;3.10;;
54745;SDS011;40640;48.130;11.356;2023-05-23T18:05:16;5.00;;;3.58;;
54745;SDS011;40640;48.130;11.356;2023-05-23T18:09:22;6.65;;;3.70;;
54745;SDS011;40640;48.130;11.356;2023-05-23T18:13:24;5.03;;;3.33;;
54745;SDS011;40640;48.130;11.356;2023-05-23T18:17:27;8.02;;;2.80;;
54745;SDS011;40640;48.130;11.356;2023-05-23T18:21:30;3.80;;;2.70;;
54745;SDS011;40640;48.130;11.356;2023-05-23T18:25:36;3.47;;;2.90;;
54745;SDS011;40640;48.130;11.356;2023-05-23T18:29:39;7.18;;;2.85;;
54745;SDS011;40640;48.130;11.356;2023-05-23T18:33:42;3.03;;;2.70;;
54745;SDS011;40640;48.130;11.356;2023-05-23T18:37:45;4.32;;;2.65;;
54745;SDS011;40640;48.130;11.356;2023-05-23T18:41:49;8.48;;;2.78;;
54745;SDS011;40640;48.130;11.356;2023-05-23T18:45:52;5.47;;;2.95;;
54745;SDS011;40640;48.130;11.356;2023-05-23T18:49:55;2.63;;;2.42;;
54745;SDS011;40640;48.130;11.356;2023-05-23T18:53:58;4.53;;;2.50;;
54745;SDS011;40640;48.130;11.356;2023-05-23T18:58:02;6.03;;;2.50;;
54745;SDS011;40640;48.130;11.356;2023-05-23T19:02:05;3.63;;;2.80;;
54745;SDS011;40640;48.130;11.356;2023-05-23T19:06:08;4.35;;;2.90;;
54745;SDS011;40640;48.130;11.356;2023-05-23T19:10:11;3.53;;;2.67;;
54745;SDS011;40640;48.130;11.356;2023-05-23T19:14:16;3.63;;;2.60;;
54745;SDS011;40640;48.130;11.356;2023-05-23T19:18:19;6.15;;;2.88;;
54745;SDS011;40640;48.130;11.356;2023-05-23T19:22:22;3.47;;;2.90;;
54745;SDS011;40640;48.130;11.356;2023-05-23T19:26:25;5.55;;;2.88;;
54745;SDS011;40640;48.130;11.356;2023-05-23T19:30:30;7.70;;;3.53;;
54745;SDS011;40640;48.130;11.356;2023-05-23T19:34:33;9.75;;;4.13;;
54745;SDS011;40640;48.130;11.356;2023-05-23T19:38:36;4.47;;;3.30;;
54745;SDS011;40640;48.130;11.356;2023-05-23T19:42:39;7.22;;;3.28;;
54745;SDS011;40640;48.130;11.356;2023-05-23T19:46:43;4.18;;;3.15;;
54745;SDS011;40640;48.130;11.356;2023-05-23T19:50:46;6.38;;;3.50;;
54745;SDS011;40640;48.130;11.356;2023-05-23T19:54:49;5.00;;;3.15;;
54745;SDS011;40640;48.130;11.356;2023-05-23T19:58:52;7.22;;;3.30;;
54745;SDS011;40640;48.130;11.356;2023-05-23T20:02:56;6.40;;;3.55;;
54745;SDS011;40640;48.130;11.356;2023-05-23T20:06:59;7.00;;;3.38;;
54745;SDS011;40640;48.130;11.356;2023-05-23T20:11:02;6.22;;;3.50;;
54745;SDS011;40640;48.130;11.356;2023-05-23T20:15:05;7.00;;;4.20;;
54745;SDS011;40640;48.130;11.356;2023-05-23T20:19:10;4.05;;;3.25;;
54745;SDS011;40640;48.130;11.356;2023-05-23T20:23:13;4.40;;;3.97;;
54745;SDS011;40640;48.130;11.356;2023-05-23T20:27:16;6.75;;;3.58;;
54745;SDS011;40640;48.130;11.356;2023-05-23T20:31:19;4.35;;;3.67;;
54745;SDS011;40640;48.130;11.356;2023-05-23T20:35:23;4.38;;;3.70;;
54745;SDS011;40640;48.130;11.356;2023-05-23T20:39:27;4.90;;;4.10;;
54745;SDS011;40640;48.130;11.356;2023-05-23T20:43:30;5.22;;;3.65;;
54745;SDS011;40640;48.130;11.356;2023-05-23T20:47:33;6.43;;;4.05;;
54745;SDS011;40640;48.130;11.356;2023-05-23T20:51:39;5.95;;;4.07;;
54745;SDS011;40640;48.130;11.356;2023-05-23T20:55:42;4.90;;;3.88;;
54745;SDS011;40640;48.130;11.356;2023-05-23T20:59:45;5.20;;;4.28;;
54745;SDS011;40640;48.130;11.356;2023-05-23T21:03:47;9.95;;;4.50;;
54745;SDS011;40640;48.130;11.356;2023-05-23T21:07:52;7.30;;;4.20;;
54745;SDS011;40640;48.130;11.356;2023-05-23T21:11:55;7.88;;;4.28;;
54745;SDS011;40640;48.130;11.356;2023-05-23T21:15:58;6.13;;;4.20;;
54745;SDS011;40640;48.130;11.356;2023-05-23T21:20:01;4.95;;;4.25;;
54745;SDS011;40640;48.130;11.356;2023-05-23T21:24:07;6.88;;;4.90;;
54745;SDS011;40640;48.130;11.356;2023-05-23T21:28:10;6.57;;;4.93;;
54745;SDS011;40640;48.130;11.356;2023-05-23T21:32:13;7.75;;;4.70;;
54745;SDS011;40640;48.130;11.356;2023-05-23T21:36:16;6.38;;;4.75;;
54745;SDS011;40640;48.130;11.356;2023-05-23T21:40:20;6.45;;;4.63;;
54745;SDS011;40640;48.130;11.356;2023-05-23T21:44:25;4.95;;;4.22;;
54745;SDS011;40640;48.130;11.356;2023-05-23T21:48:28;6.75;;;4.25;;
54745;SDS011;40640;48.130;11.356;2023-05-23T21:52:31;6.00;;;4.57;;
54745;SDS011;40640;48.130;11.356;2023-05-23T21:56:35;6.32;;;4.63;;
54745;SDS011;40640;48.130;11.356;2023-05-23T22:00:38;10.27;;;4.05;;
54745;SDS011;40640;48.130;11.356;2023-05-23T22:04:43;5.77;;;4.27;;
54745;SDS011;40640;48.130;11.356;2023-05-23T22:08:46;4.97;;;3.80;;
54745;SDS011;40640;48.130;11.356;2023-05-23T22:12:51;5.03;;;4.20;;
54745;SDS011;40640;48.130;11.356;2023-05-23T22:16:53;4.80;;;4.13;;
54745;SDS011;40640;48.130;11.356;2023-05-23T22:20:59;6.80;;;4.40;;
54745;SDS011;40640;48.130;11.356;2023-05-23T22:25:02;8.80;;;4.13;;
54745;SDS011;40640;48.130;11.356;2023-05-23T22:29:06;7.13;;;4.35;;
54745;SDS011;40640;48.130;11.356;2023-05-23T22:33:09;5.72;;;4.05;;
54745;SDS011;40640;48.130;11.356;2023-05-23T22:37:13;4.95;;;3.85;;
54745;SDS011;40640;48.130;11.356;2023-05-23T22:41:17;4.75;;;3.80;;
54745;SDS011;40640;48.130;11.356;2023-05-23T22:45:21;4.82;;;4.18;;
54745;SDS011;40640;48.130;11.356;2023-05-23T22:49:24;6.25;;;3.90;;
54745;SDS011;40640;48.130;11.356;2023-05-23T22:53:30;9.27;;;4.57;;
54745;SDS011;40640;48.130;11.356;2023-05-23T22:57:33;7.97;;;4.47;;
54745;SDS011;40640;48.130;11.356;2023-05-23T23:01:37;5.97;;;4.40;;
54745;SDS011;40640;48.130;11.356;2023-05-23T23:05:40;5.57;;;4.22;;
54745;SDS011;40640;48.130;11.356;2023-05-23T23:09:43;4.75;;;4.07;;
54745;SDS011;40640;48.130;11.356;2023-05-23T23:13:46;6.85;;;4.00;;
54745;SDS011;40640;48.130;11.356;2023-05-23T23:17:50;6.18;;;4.20;;
54745;SDS011;40640;48.130;11.356;2023-05-23T23:21:53;6.28;;;4.50;;
54745;SDS011;40640;48.130;11.356;2023-05-23T23:25:56;5.22;;;4.28;;
54745;SDS011;40640;48.130;11.356;2023-05-23T23:29:59;8.52;;;4.38;;
54745;SDS011;40640;48.130;11.356;2023-05-23T23:34:04;5.38;;;3.92;;
54745;SDS011;40640;48.130;11.356;2023-05-23T23:38:07;4.90;;;4.22;;
54745;SDS011;40640;48.130;11.356;2023-05-23T23:42:10;4.75;;;3.88;;
54745;SDS011;40640;48.130;11.356;2023-05-23T23:46:13;5.05;;;4.18;;
54745;SDS011;40640;48.130;11.356;2023-05-23T23:50:18;4.80;;;3.88;;
54745;SDS011;40640;48.130;11.356;2023-05-23T23:54:21;5.32;;;3.70;;
54745;SDS011;40640;48.130;11.356;2023-05-23T23:58:24;7.80;;;4.00;;
